createdAt,value
2022-09-21T00:01:27.926Z,13.19
2022-09-21T00:03:58.230Z,13.18
2022-09-21T00:06:28.273Z,13.18
2022-09-21T00:08:57.084Z,13.16
2022-09-21T00:11:27.697Z,13.12
2022-09-21T00:13:58.125Z,13.07
2022-09-21T00:16:27.984Z,13.03
2022-09-21T00:18:55.899Z,13.00
2022-09-21T00:21:24.415Z,12.97
2022-09-21T00:23:54.297Z,12.94
2022-09-21T00:26:24.585Z,12.94
2022-09-21T00:28:55.358Z,12.91
2022-09-21T00:31:24.101Z,12.92
2022-09-21T00:33:53.714Z,12.90
2022-09-21T00:36:24.657Z,12.87
2022-09-21T00:38:54.589Z,12.84
2022-09-21T00:41:22.483Z,12.81
2022-09-21T00:44:10.942Z,12.80
2022-09-21T00:46:40.112Z,12.81
2022-09-21T00:49:09.900Z,12.78
2022-09-21T00:51:38.620Z,12.76
2022-09-21T00:54:12.251Z,12.72
2022-09-21T00:56:40.266Z,12.69
2022-09-21T00:59:10.589Z,12.68
2022-09-21T01:01:38.628Z,12.66
2022-09-21T01:04:07.221Z,12.64
2022-09-21T01:06:39.690Z,12.59
2022-09-21T01:09:08.083Z,12.54
2022-09-21T01:11:46.160Z,12.53
2022-09-21T01:14:27.459Z,12.50
2022-09-21T01:17:07.852Z,12.50
2022-09-21T01:20:02.578Z,12.42
2022-09-21T01:22:44.606Z,12.39
2022-09-21T01:25:28.616Z,12.40
2022-09-21T01:28:18.447Z,12.40
2022-09-21T01:30:50.807Z,12.44
2022-09-21T01:33:27.338Z,12.39
2022-09-21T01:35:58.739Z,12.35
2022-09-21T01:38:33.013Z,12.32
2022-09-21T01:41:04.656Z,12.30
2022-09-21T01:43:36.479Z,12.30
2022-09-21T01:46:11.453Z,12.30
2022-09-21T01:48:42.983Z,12.32
2022-09-21T01:51:14.934Z,12.35
2022-09-21T01:53:47.206Z,12.33
2022-09-21T01:56:21.426Z,12.33
2022-09-21T01:58:58.628Z,12.31
2022-09-21T02:01:31.709Z,12.28
2022-09-21T02:04:06.070Z,12.26
2022-09-21T02:06:34.014Z,12.25
2022-09-21T02:09:02.320Z,12.23
2022-09-21T02:11:30.206Z,12.20
2022-09-21T02:13:58.067Z,12.13
2022-09-21T02:16:37.045Z,12.07
2022-09-21T02:19:12.360Z,12.09
2022-09-21T02:21:50.186Z,12.09
2022-09-21T02:24:26.121Z,12.06
2022-09-21T02:27:00.676Z,12.01
2022-09-21T02:29:36.517Z,12.01
2022-09-21T02:32:10.126Z,12.03
2022-09-21T02:34:46.397Z,12.05
2022-09-21T02:37:24.347Z,11.98
2022-09-21T02:40:00.533Z,11.94
2022-09-21T02:42:33.725Z,11.96
2022-09-21T02:45:08.532Z,11.98
2022-09-21T02:47:46.051Z,12.00
2022-09-21T02:50:21.278Z,12.00
2022-09-21T02:52:50.107Z,12.00
2022-09-21T02:55:19.000Z,12.02
2022-09-21T02:57:48.929Z,11.99
2022-09-21T03:00:18.221Z,11.97
2022-09-21T03:02:47.695Z,11.96
2022-09-21T03:05:16.245Z,11.94
2022-09-21T03:07:44.414Z,11.92
2022-09-21T03:10:12.453Z,11.86
2022-09-21T03:12:40.446Z,11.85
2022-09-21T03:15:09.021Z,11.82
2022-09-21T03:17:36.911Z,11.79
2022-09-21T03:20:07.964Z,11.74
2022-09-21T03:22:36.091Z,11.75
2022-09-21T03:25:04.319Z,11.74
2022-09-21T03:27:32.448Z,11.75
2022-09-21T03:30:02.393Z,11.76
2022-09-21T03:32:30.643Z,11.75
2022-09-21T03:34:58.484Z,11.72
2022-09-21T03:37:28.015Z,11.69
2022-09-21T03:39:56.051Z,11.69
2022-09-21T03:42:23.991Z,11.67
2022-09-21T03:44:52.454Z,11.63
2022-09-21T03:47:20.710Z,11.61
2022-09-21T03:49:48.563Z,11.59
2022-09-21T03:52:16.998Z,11.55
2022-09-21T03:54:46.764Z,11.51
2022-09-21T03:57:14.712Z,11.49
2022-09-21T03:59:43.736Z,11.47
2022-09-21T04:02:11.694Z,11.48
2022-09-21T04:04:39.843Z,11.46
2022-09-21T04:07:07.679Z,11.46
2022-09-21T04:09:35.602Z,11.42
2022-09-21T04:12:05.356Z,11.41
2022-09-21T04:14:33.652Z,11.39
2022-09-21T04:17:01.546Z,11.38
2022-09-21T04:19:29.885Z,11.35
2022-09-21T04:21:57.903Z,11.32
2022-09-21T04:24:26.172Z,11.29
2022-09-21T04:26:54.320Z,11.28
2022-09-21T04:29:23.556Z,11.31
2022-09-21T04:31:51.415Z,11.31
2022-09-21T04:34:19.694Z,11.30
2022-09-21T04:36:47.576Z,11.32
2022-09-21T04:39:15.434Z,11.33
2022-09-21T04:41:43.780Z,11.36
2022-09-21T04:44:11.700Z,11.35
2022-09-21T04:46:40.978Z,11.34
2022-09-21T04:49:10.669Z,11.34
2022-09-21T04:51:39.005Z,11.36
2022-09-21T04:54:07.074Z,11.37
2022-09-21T04:56:35.586Z,11.32
2022-09-21T04:59:03.582Z,11.28
2022-09-21T05:01:31.643Z,11.26
2022-09-21T05:04:02.448Z,11.26
2022-09-21T05:06:31.024Z,11.26
2022-09-21T05:09:16.698Z,11.24
2022-09-21T05:11:44.906Z,11.25
2022-09-21T05:14:13.073Z,11.26
2022-09-21T05:16:40.962Z,11.27
2022-09-21T05:19:10.148Z,11.29
2022-09-21T05:21:38.285Z,11.32
2022-09-21T05:24:06.547Z,11.37
2022-09-21T05:26:34.414Z,11.39
2022-09-21T05:29:03.191Z,11.42
2022-09-21T05:31:41.704Z,11.46
2022-09-21T05:34:36.598Z,11.52
2022-09-21T05:37:11.132Z,11.57
2022-09-21T05:39:39.876Z,11.58
2022-09-21T05:42:10.245Z,11.59
2022-09-21T05:44:38.746Z,11.59
2022-09-21T05:47:18.602Z,11.59
2022-09-21T05:49:56.795Z,11.58
2022-09-21T05:52:35.775Z,11.62
2022-09-21T05:55:10.880Z,11.65
2022-09-21T05:57:47.639Z,11.73
2022-09-21T06:00:18.948Z,11.82
2022-09-21T06:02:58.650Z,11.89
2022-09-21T06:05:28.259Z,11.98
2022-09-21T06:07:56.406Z,12.07
2022-09-21T06:10:25.158Z,12.16
2022-09-21T06:12:53.056Z,12.26
2022-09-21T06:15:21.332Z,12.38
2022-09-21T06:17:49.192Z,12.51
2022-09-21T06:20:17.279Z,12.61
2022-09-21T06:22:46.742Z,12.72
2022-09-21T06:25:14.747Z,12.85
2022-09-21T06:27:42.687Z,12.98
2022-09-21T06:30:11.590Z,13.11
2022-09-21T06:32:39.697Z,13.25
2022-09-21T06:35:08.193Z,13.39
2022-09-21T06:37:38.343Z,13.53
2022-09-21T06:40:09.584Z,13.67
2022-09-21T06:42:37.801Z,13.84
2022-09-21T06:45:06.622Z,14.00
2022-09-21T06:47:34.495Z,14.15
2022-09-21T06:50:03.323Z,14.30
2022-09-21T06:52:31.225Z,14.46
2022-09-21T06:54:59.145Z,14.63
2022-09-21T06:57:28.652Z,14.78
2022-09-21T06:59:56.530Z,14.91
2022-09-21T07:02:24.415Z,15.04
2022-09-21T07:04:52.591Z,15.17
2022-09-21T07:07:20.456Z,15.36
2022-09-21T07:12:37.884Z,15.58
2022-09-21T07:15:07.814Z,15.77
2022-09-21T07:17:37.734Z,15.92
2022-09-21T07:20:08.276Z,16.08
2022-09-21T07:22:36.921Z,16.26
2022-09-21T07:25:06.245Z,16.31
2022-09-21T07:27:35.415Z,16.40
2022-09-21T07:30:05.453Z,16.56
2022-09-21T07:32:33.393Z,16.78
2022-09-21T07:35:01.697Z,16.88
2022-09-21T07:37:32.087Z,17.05
2022-09-21T07:40:02.835Z,17.16
2022-09-21T07:42:30.976Z,17.37
2022-09-21T07:45:04.009Z,17.49
2022-09-21T07:47:36.545Z,17.65
2022-09-21T07:50:04.736Z,17.81
2022-09-21T07:52:32.880Z,17.90
2022-09-21T07:55:00.760Z,17.69
2022-09-21T07:57:46.178Z,17.88
2022-09-21T08:00:15.311Z,18.02
2022-09-21T08:02:47.645Z,18.09
2022-09-21T08:05:16.324Z,18.20
2022-09-21T08:07:44.468Z,18.45
2022-09-21T08:10:13.076Z,18.49
2022-09-21T08:12:41.082Z,18.66
2022-09-21T08:15:30.642Z,18.91
2022-09-21T08:18:00.830Z,19.15
2022-09-21T08:20:29.162Z,19.18
2022-09-21T08:22:57.228Z,19.18
2022-09-21T08:25:25.231Z,19.32
2022-09-21T08:27:53.430Z,19.33
2022-09-21T08:30:21.473Z,19.41
2022-09-21T08:32:51.933Z,19.62
2022-09-21T08:35:21.591Z,19.69
2022-09-21T08:37:51.088Z,19.74
2022-09-21T08:40:20.731Z,19.87
2022-09-21T08:42:57.147Z,19.83
2022-09-21T08:45:33.044Z,19.97
2022-09-21T08:48:06.378Z,20.09
2022-09-21T08:50:40.401Z,20.34
2022-09-21T08:53:15.598Z,20.34
2022-09-21T08:55:43.569Z,20.42
2022-09-21T08:58:24.110Z,20.53
2022-09-21T09:01:07.313Z,20.65
2022-09-21T09:03:52.000Z,20.75
2022-09-21T09:06:30.890Z,20.82
2022-09-21T09:09:33.963Z,20.94
2022-09-21T09:12:18.378Z,21.06
2022-09-21T09:15:05.654Z,21.17
2022-09-21T09:17:44.552Z,21.27
2022-09-21T09:20:17.565Z,21.41
2022-09-21T09:22:49.941Z,21.54
2022-09-21T09:25:21.824Z,21.63
2022-09-21T09:27:54.188Z,21.70
2022-09-21T09:30:25.461Z,21.73
2022-09-21T09:32:59.305Z,21.78
2022-09-21T09:35:30.183Z,21.84
2022-09-21T09:38:06.955Z,21.85
2022-09-21T09:40:53.654Z,21.69
2022-09-21T09:43:36.162Z,21.77
2022-09-21T09:46:13.634Z,21.71
2022-09-21T09:49:11.638Z,21.82
2022-09-21T09:51:40.553Z,22.03
2022-09-21T09:54:15.142Z,22.29
2022-09-21T09:56:43.901Z,22.44
2022-09-21T09:59:20.207Z,22.29
2022-09-21T10:02:00.898Z,22.22
2022-09-21T10:04:29.114Z,22.26
2022-09-21T10:06:57.118Z,22.36
2022-09-21T10:09:29.174Z,22.38
2022-09-21T10:12:01.476Z,22.37
2022-09-21T10:14:35.118Z,22.17
2022-09-21T10:17:07.334Z,22.16
2022-09-21T10:19:35.534Z,22.21
2022-09-21T10:22:05.833Z,22.16
2022-09-21T10:24:38.312Z,22.12
2022-09-21T10:27:10.451Z,21.98
2022-09-21T10:29:43.402Z,22.20
2022-09-21T10:32:24.048Z,22.40
2022-09-21T10:35:18.102Z,22.52
2022-09-21T10:37:49.257Z,22.45
2022-09-21T10:40:27.458Z,22.46
2022-09-21T10:42:58.551Z,22.63
2022-09-21T10:45:28.028Z,22.71
2022-09-21T10:47:58.290Z,22.78
2022-09-21T10:50:29.631Z,22.67
2022-09-21T10:53:02.883Z,22.85
2022-09-21T10:55:33.076Z,22.88
2022-09-21T10:58:01.595Z,23.25
2022-09-21T11:00:43.498Z,23.38
2022-09-21T11:03:43.029Z,23.31
2022-09-21T11:06:16.074Z,23.36
2022-09-21T11:08:49.880Z,23.06
2022-09-21T11:11:39.505Z,22.84
2022-09-21T11:14:15.927Z,22.76
2022-09-21T11:16:51.571Z,22.82
2022-09-21T11:19:30.028Z,23.01
2022-09-21T11:22:04.068Z,23.00
2022-09-21T11:24:40.149Z,23.13
2022-09-21T11:27:16.740Z,23.12
2022-09-21T11:29:54.828Z,23.14
2022-09-21T11:32:50.448Z,23.03
2022-09-21T11:35:27.204Z,23.35
2022-09-21T11:38:06.355Z,23.59
2022-09-21T11:40:54.415Z,23.78
2022-09-21T11:43:39.471Z,23.69
2022-09-21T11:46:18.622Z,23.45
2022-09-21T11:48:59.953Z,23.35
2022-09-21T11:51:57.302Z,23.47
2022-09-21T11:54:52.405Z,23.77
2022-09-21T11:57:28.349Z,23.52
2022-09-21T12:00:06.973Z,23.67
2022-09-21T12:03:05.428Z,23.63
2022-09-21T12:05:38.664Z,23.65
2022-09-21T12:08:37.802Z,23.70
2022-09-21T12:11:14.079Z,23.44
2022-09-21T12:13:55.751Z,23.19
2022-09-21T12:16:35.116Z,23.11
2022-09-21T12:19:10.595Z,23.11
2022-09-21T12:21:42.540Z,23.21
2022-09-21T12:24:17.898Z,23.21
2022-09-21T12:26:51.190Z,23.49
2022-09-21T12:29:25.260Z,23.63
2022-09-21T12:32:00.744Z,23.71
2022-09-21T12:34:35.365Z,23.78
2022-09-21T12:37:11.245Z,23.72
2022-09-21T12:39:44.799Z,23.65
2022-09-21T12:42:25.750Z,23.61
2022-09-21T12:44:57.963Z,23.54
2022-09-21T12:47:38.202Z,23.40
2022-09-21T12:50:17.350Z,23.39
2022-09-21T12:52:46.081Z,23.34
2022-09-21T12:55:29.352Z,23.38
2022-09-21T12:58:15.207Z,23.46
2022-09-21T13:00:56.383Z,23.73
2022-09-21T13:03:33.105Z,23.83
2022-09-21T13:06:27.597Z,23.88
2022-09-21T13:08:56.260Z,24.09
2022-09-21T13:11:24.799Z,24.11
2022-09-21T13:13:59.344Z,24.11
2022-09-21T13:16:30.373Z,23.98
2022-09-21T13:19:01.744Z,23.85
2022-09-21T13:21:32.322Z,23.67
2022-09-21T13:24:02.184Z,23.49
2022-09-21T13:26:35.714Z,23.57
2022-09-21T13:29:36.526Z,23.81
2022-09-21T13:32:21.705Z,23.84
2022-09-21T13:34:51.539Z,23.99
2022-09-21T13:37:32.630Z,24.16
2022-09-21T13:40:43.555Z,24.25
2022-09-21T13:43:19.180Z,24.39
2022-09-21T13:45:54.313Z,24.52
2022-09-21T13:48:29.428Z,24.44
2022-09-21T13:51:07.727Z,24.09
2022-09-21T13:53:41.110Z,23.97
2022-09-21T13:56:17.466Z,23.69
2022-09-21T13:58:48.665Z,23.42
2022-09-21T14:01:45.188Z,23.24
2022-09-21T14:04:20.840Z,23.08
2022-09-21T14:06:54.339Z,22.94
2022-09-21T14:09:27.553Z,22.85
2022-09-21T14:11:59.129Z,22.77
2022-09-21T14:14:32.976Z,22.85
2022-09-21T14:17:01.701Z,22.74
2022-09-21T14:20:02.947Z,22.64
2022-09-21T14:23:10.322Z,22.70
2022-09-21T14:25:53.146Z,22.82
2022-09-21T14:28:34.810Z,22.77
2022-09-21T14:31:07.813Z,22.99
2022-09-21T14:33:45.196Z,23.03
2022-09-21T14:36:19.196Z,23.13
2022-09-21T14:38:54.824Z,23.16
2022-09-21T14:41:25.450Z,23.20
2022-09-21T14:43:56.523Z,23.19
2022-09-21T14:46:48.388Z,23.27
2022-09-21T14:49:32.855Z,23.19
2022-09-21T14:52:13.440Z,23.26
2022-09-21T14:54:58.201Z,23.19
2022-09-21T14:57:40.813Z,23.32
2022-09-21T15:00:23.308Z,23.18
2022-09-21T15:03:06.043Z,23.21
2022-09-21T15:05:38.678Z,23.40
2022-09-21T15:08:41.729Z,23.48
2022-09-21T15:11:18.804Z,23.61
2022-09-21T15:14:14.630Z,23.68
2022-09-21T15:16:47.078Z,23.81
2022-09-21T15:19:23.073Z,23.86
2022-09-21T15:21:53.040Z,23.89
2022-09-21T15:24:25.849Z,23.86
2022-09-21T15:27:02.920Z,23.67
2022-09-21T15:29:32.959Z,23.64
2022-09-21T15:32:02.217Z,23.61
2022-09-21T15:34:31.839Z,23.58
2022-09-21T15:37:17.085Z,23.52
2022-09-21T15:39:45.419Z,23.51
2022-09-21T15:42:23.106Z,23.42
2022-09-21T15:45:06.488Z,23.37
2022-09-21T15:47:35.198Z,23.30
2022-09-21T15:50:03.998Z,23.23
2022-09-21T15:52:37.851Z,23.20
2022-09-21T15:55:14.915Z,23.18
2022-09-21T15:57:45.125Z,23.17
2022-09-21T16:00:21.417Z,23.10
2022-09-21T16:03:04.252Z,22.99
2022-09-21T16:05:35.142Z,22.86
2022-09-21T16:08:10.142Z,22.76
2022-09-21T16:10:40.908Z,22.65
2022-09-21T16:13:36.603Z,22.50
2022-09-21T16:16:06.931Z,22.45
2022-09-21T16:18:43.245Z,22.34
2022-09-21T16:21:20.783Z,22.26
2022-09-21T16:23:50.140Z,22.17
2022-09-21T16:26:24.888Z,22.03
2022-09-21T16:29:19.106Z,21.90
2022-09-21T16:31:50.410Z,21.77
2022-09-21T16:34:33.006Z,21.59
2022-09-21T16:37:02.779Z,21.48
2022-09-21T16:39:30.987Z,21.36
2022-09-21T16:42:04.560Z,21.28
2022-09-21T16:44:44.485Z,21.14
2022-09-21T16:47:15.262Z,21.05
2022-09-21T16:49:44.351Z,20.97
2022-09-21T16:52:12.442Z,20.87
2022-09-21T16:54:40.317Z,20.81
2022-09-21T16:57:08.510Z,20.80
2022-09-21T16:59:37.748Z,20.77
2022-09-21T17:02:05.954Z,20.75
2022-09-21T17:04:35.694Z,20.73
2022-09-21T17:07:05.906Z,20.68
2022-09-21T17:09:35.837Z,20.54
2022-09-21T17:12:06.913Z,20.44
2022-09-21T17:14:42.964Z,20.40
2022-09-21T17:17:18.136Z,20.34
2022-09-21T17:19:46.914Z,20.25
2022-09-21T17:22:17.396Z,20.19
2022-09-21T17:24:50.842Z,20.16
2022-09-21T17:27:21.235Z,20.08
2022-09-21T17:29:51.062Z,19.99
2022-09-21T17:32:21.187Z,19.94
2022-09-21T17:34:56.460Z,19.89
2022-09-21T17:37:26.013Z,19.84
2022-09-21T17:39:54.567Z,19.78
2022-09-21T17:42:25.724Z,19.73
2022-09-21T17:45:05.200Z,19.67
2022-09-21T17:47:34.047Z,19.66
2022-09-21T17:50:15.619Z,19.64
2022-09-21T17:53:02.585Z,19.63
2022-09-21T17:55:32.017Z,19.59
2022-09-21T17:58:18.650Z,19.58
2022-09-21T18:00:57.089Z,19.58
2022-09-21T18:03:28.080Z,19.52
2022-09-21T18:06:00.772Z,19.48
2022-09-21T18:08:30.317Z,19.45
2022-09-21T18:11:26.186Z,19.39
2022-09-21T18:14:02.841Z,19.35
2022-09-21T18:16:37.471Z,19.29
2022-09-21T18:19:21.291Z,19.24
2022-09-21T18:21:52.627Z,19.19
2022-09-21T18:24:23.908Z,19.11
2022-09-21T18:26:54.179Z,19.04
2022-09-21T18:29:39.508Z,18.90
2022-09-21T18:32:32.225Z,18.79
2022-09-21T18:35:15.038Z,18.73
2022-09-21T18:37:53.540Z,18.63
2022-09-21T18:40:29.198Z,18.50
2022-09-21T18:43:04.957Z,18.36
2022-09-21T18:45:38.947Z,18.25
2022-09-21T18:48:21.421Z,18.12
2022-09-21T18:50:59.707Z,18.01
2022-09-21T18:53:33.910Z,17.91
2022-09-21T18:56:02.669Z,17.78
2022-09-21T18:58:31.158Z,17.69
2022-09-21T19:01:00.263Z,17.60
2022-09-21T19:03:30.661Z,17.51
2022-09-21T19:06:22.250Z,17.40
2022-09-21T19:08:56.358Z,17.32
2022-09-21T19:11:34.721Z,17.21
2022-09-21T19:14:12.048Z,17.13
2022-09-21T19:16:46.355Z,17.05
2022-09-21T19:19:28.338Z,16.99
2022-09-21T19:22:03.771Z,16.93
2022-09-21T19:24:37.927Z,16.85
2022-09-21T19:27:17.251Z,16.78
2022-09-21T19:29:54.535Z,16.73
2022-09-21T19:32:39.548Z,16.64
2022-09-21T19:35:22.152Z,16.59
2022-09-21T19:37:51.918Z,16.51
2022-09-21T19:40:23.482Z,16.42
2022-09-21T19:43:21.016Z,16.38
2022-09-21T19:46:11.938Z,16.41
2022-09-21T19:48:43.660Z,16.32
2022-09-21T19:51:20.146Z,16.25
2022-09-21T19:54:13.360Z,16.23
2022-09-21T19:57:04.610Z,16.12
2022-09-21T19:59:45.021Z,16.02
2022-09-21T20:02:15.593Z,15.94
2022-09-21T20:04:50.101Z,15.90
2022-09-21T20:07:26.771Z,15.85
2022-09-21T20:10:08.356Z,15.82
2022-09-21T20:12:43.915Z,15.78
2022-09-21T20:15:16.994Z,15.74
2022-09-21T20:17:50.916Z,15.72
2022-09-21T20:20:22.710Z,15.72
2022-09-21T20:22:52.726Z,15.71
2022-09-21T20:25:25.916Z,15.66
2022-09-21T20:27:56.218Z,15.64
2022-09-21T20:30:27.018Z,15.61
2022-09-21T20:32:57.582Z,15.58
2022-09-21T20:35:28.056Z,15.55
2022-09-21T20:38:01.959Z,15.50
2022-09-21T20:40:32.323Z,15.48
2022-09-21T20:43:01.655Z,15.44
2022-09-21T20:45:31.403Z,15.38
2022-09-21T20:48:12.980Z,15.35
2022-09-21T20:50:42.196Z,15.28
2022-09-21T20:53:12.616Z,15.23
2022-09-21T20:55:41.226Z,15.19
2022-09-21T20:58:12.548Z,15.15
2022-09-21T21:00:41.113Z,15.11
2022-09-21T21:03:09.004Z,15.09
2022-09-21T21:05:37.168Z,15.10
2022-09-21T21:08:05.655Z,15.09
2022-09-21T21:10:34.911Z,15.06
2022-09-21T21:13:03.036Z,15.02
2022-09-21T21:15:32.006Z,14.98
2022-09-21T21:17:59.908Z,14.89
2022-09-21T21:20:29.019Z,14.83
2022-09-21T21:22:57.199Z,14.79
2022-09-21T21:25:25.112Z,14.73
2022-09-21T21:27:57.381Z,14.69
2022-09-21T21:30:25.558Z,14.63
2022-09-21T21:32:53.591Z,14.58
2022-09-21T21:35:21.531Z,14.51
2022-09-21T21:37:49.699Z,14.46
2022-09-21T21:40:17.883Z,14.43
2022-09-21T21:42:45.865Z,14.39
2022-09-21T21:45:15.421Z,14.39
2022-09-21T21:47:43.392Z,14.37
2022-09-21T21:50:12.007Z,14.31
2022-09-21T21:52:40.625Z,14.23
2022-09-21T21:55:10.117Z,14.16
2022-09-21T21:57:38.062Z,14.11
2022-09-21T22:00:08.571Z,14.05
2022-09-21T22:02:37.773Z,14.03
2022-09-21T22:05:06.694Z,14.01
2022-09-21T22:07:34.668Z,13.99
2022-09-21T22:10:03.047Z,13.96
2022-09-21T22:12:31.656Z,13.93
2022-09-21T22:14:59.499Z,13.89
2022-09-21T22:17:27.368Z,13.82
2022-09-21T22:19:56.826Z,13.77
2022-09-21T22:22:25.360Z,13.73
2022-09-21T22:24:53.240Z,13.70
2022-09-21T22:27:21.563Z,13.68
2022-09-21T22:29:49.489Z,13.64
2022-09-21T22:32:17.380Z,13.59
2022-09-21T22:34:45.471Z,13.55
2022-09-21T22:37:14.756Z,13.54
2022-09-21T22:39:42.904Z,13.52
2022-09-21T22:42:11.534Z,13.54
2022-09-21T22:44:39.420Z,13.54
2022-09-21T22:47:07.480Z,13.49
2022-09-21T22:49:35.567Z,13.45
2022-09-21T22:52:03.509Z,13.41
2022-09-21T22:54:32.791Z,13.39
2022-09-21T22:57:00.994Z,13.37
2022-09-21T22:59:28.975Z,13.33
2022-09-21T23:01:56.859Z,13.29
2022-09-21T23:04:24.979Z,13.25
2022-09-21T23:06:53.020Z,13.21
2022-09-21T23:09:22.341Z,13.16
2022-09-21T23:11:53.883Z,13.14
2022-09-21T23:14:23.103Z,13.11
2022-09-21T23:16:51.495Z,13.07
2022-09-21T23:19:19.331Z,13.05
2022-09-21T23:21:50.311Z,13.03
2022-09-21T23:24:19.487Z,13.02
2022-09-21T23:26:50.407Z,12.97
2022-09-21T23:29:20.051Z,12.97
2022-09-21T23:31:48.271Z,12.98
2022-09-21T23:34:16.981Z,13.02
2022-09-21T23:36:46.058Z,13.02
2022-09-21T23:39:15.917Z,13.05
2022-09-21T23:41:44.663Z,13.01
2022-09-21T23:44:13.253Z,12.97
2022-09-21T23:46:42.925Z,12.98
2022-09-21T23:49:11.349Z,12.98
2022-09-21T23:51:39.985Z,13.06
2022-09-21T23:54:08.530Z,13.10
2022-09-21T23:56:36.668Z,13.12
2022-09-21T23:59:05.467Z,13.16
